createdAt,value
2017-06-11T12:23:52.943Z,764
2017-06-11T12:24:54.358Z,768
2017-06-11T12:26:15.914Z,852
2017-06-11T12:27:17.338Z,872
2017-06-11T12:28:38.939Z,848
2017-06-11T12:29:40.352Z,824
2017-06-11T12:31:01.990Z,868
2017-06-11T12:32:03.405Z,900
2017-06-11T12:33:25.111Z,932
2017-06-11T12:34:26.706Z,956
2017-06-11T12:35:48.310Z,1036
2017-06-11T12:36:49.727Z,1064
2017-06-11T12:38:11.339Z,1092
2017-06-11T12:39:12.809Z,1084
2017-06-11T12:40:34.384Z,1100
2017-06-11T12:41:35.927Z,1128
2017-06-11T12:42:57.584Z,1144
2017-06-11T12:43:59.022Z,1176
2017-06-11T12:45:20.626Z,1204
2017-06-11T12:46:22.046Z,1196
2017-06-11T12:47:43.633Z,1244
2017-06-11T12:48:45.060Z,1264
2017-06-11T12:50:06.673Z,1180
2017-06-11T12:51:08.104Z,1220
2017-06-11T12:52:29.714Z,1212
2017-06-11T12:53:31.173Z,1160
2017-06-11T12:54:32.933Z,1128
2017-06-11T12:55:34.387Z,1156
2017-06-11T12:56:35.806Z,1136
2017-06-11T12:57:37.306Z,1140
2017-06-11T12:58:38.738Z,1104
2017-06-11T12:59:40.165Z,1072
2017-06-11T13:00:41.589Z,1048
2017-06-11T13:01:43.025Z,1056
2017-06-11T13:02:44.448Z,1076
2017-06-11T13:03:45.874Z,1108
2017-06-11T13:04:47.376Z,1112
2017-06-11T13:05:48.870Z,1140
2017-06-11T13:06:50.318Z,1144
2017-06-11T13:07:51.744Z,1148
2017-06-11T13:08:53.331Z,1168
2017-06-11T13:09:54.749Z,1188
2017-06-11T13:10:56.176Z,1176
2017-06-11T13:11:57.615Z,1188
2017-06-11T13:12:59.059Z,1192
2017-06-11T13:14:00.493Z,1212
2017-06-11T13:15:01.930Z,1196
2017-06-11T13:16:03.360Z,1192
2017-06-11T13:17:04.780Z,1220
2017-06-11T13:18:06.206Z,1172
2017-06-11T13:19:07.628Z,1132
2017-06-11T13:20:09.052Z,1124
2017-06-11T13:21:10.500Z,1132
2017-06-11T13:22:11.921Z,1140
2017-06-11T13:23:13.356Z,1148
2017-06-11T13:24:14.783Z,1156
2017-06-11T13:25:16.361Z,1176
2017-06-11T13:26:17.787Z,1176
2017-06-11T13:27:19.246Z,1188
2017-06-11T13:28:20.673Z,1212
2017-06-11T13:29:22.125Z,1228
2017-06-11T13:30:23.556Z,1224
2017-06-11T13:31:24.997Z,1184
2017-06-11T13:32:26.425Z,1152
2017-06-11T13:33:27.853Z,1128
2017-06-11T13:34:29.308Z,1096
2017-06-11T13:35:30.738Z,1088
2017-06-11T13:36:32.177Z,1084
2017-06-11T13:37:33.592Z,1068
2017-06-11T13:38:35.017Z,1056
2017-06-11T13:39:36.439Z,1080
2017-06-11T13:40:37.864Z,1124
2017-06-11T13:41:39.320Z,1148
2017-06-11T13:42:40.751Z,1072
2017-06-11T13:43:42.175Z,1028
2017-06-11T13:44:43.726Z,996
2017-06-11T13:45:45.154Z,960
2017-06-11T13:46:46.575Z,948
2017-06-11T13:47:47.997Z,924
2017-06-11T13:48:49.436Z,896
2017-06-11T13:49:50.911Z,876
2017-06-11T13:50:52.392Z,892
2017-06-11T13:51:53.805Z,900
2017-06-11T13:52:55.237Z,880
2017-06-11T13:53:56.658Z,868
2017-06-11T13:54:58.177Z,868
2017-06-11T13:55:59.605Z,872
2017-06-11T13:57:01.033Z,920
2017-06-11T13:58:02.458Z,940
2017-06-11T13:59:03.890Z,1020
2017-06-11T14:00:05.377Z,1024
2017-06-11T14:01:06.807Z,1040
2017-06-11T14:02:08.267Z,1064
2017-06-11T14:03:09.694Z,1028
2017-06-11T14:04:11.149Z,964
2017-06-11T14:05:12.542Z,932
2017-06-11T14:06:13.963Z,912
2017-06-11T14:07:15.383Z,876
2017-06-11T14:08:16.817Z,840
2017-06-11T14:09:18.241Z,792
2017-06-11T14:10:19.676Z,740
2017-06-11T14:11:21.100Z,700
2017-06-11T14:12:22.526Z,688
2017-06-11T14:13:23.940Z,744
2017-06-11T14:14:25.361Z,780
2017-06-11T14:15:26.797Z,816
2017-06-11T14:16:28.223Z,844
2017-06-11T14:17:29.716Z,864
2017-06-11T14:18:31.138Z,912
2017-06-11T14:19:32.562Z,960
2017-06-11T14:20:34.199Z,1020
2017-06-11T14:21:35.457Z,1052
2017-06-11T14:22:36.884Z,1040
2017-06-11T14:23:38.323Z,1020
2017-06-11T14:24:39.750Z,1012
2017-06-11T14:25:41.173Z,1028
2017-06-11T14:26:42.646Z,1032
2017-06-11T14:27:44.057Z,1004
2017-06-11T14:28:45.483Z,992
2017-06-11T14:29:46.902Z,940
2017-06-11T14:30:48.379Z,884
2017-06-11T14:31:49.801Z,820
2017-06-11T14:32:51.224Z,728
2017-06-11T14:33:52.673Z,660
2017-06-11T14:34:54.074Z,644
2017-06-11T14:35:55.510Z,636
2017-06-11T14:36:56.934Z,608
2017-06-11T14:37:58.354Z,576
2017-06-11T14:38:59.774Z,540
2017-06-11T14:40:01.196Z,488
2017-06-11T14:41:02.613Z,480
2017-06-11T14:42:04.048Z,488
2017-06-11T14:43:05.465Z,508
2017-06-11T14:44:06.885Z,496
2017-06-11T14:45:08.304Z,472
2017-06-11T14:46:09.726Z,468
2017-06-11T14:47:11.199Z,508
2017-06-11T14:48:12.615Z,592
2017-06-11T14:49:14.043Z,692
2017-06-11T14:50:15.509Z,736
2017-06-11T14:51:16.979Z,724
2017-06-11T14:52:18.390Z,692
2017-06-11T14:53:19.817Z,656
2017-06-11T14:54:21.228Z,620
2017-06-11T14:55:22.705Z,600
2017-06-11T14:56:24.126Z,596
2017-06-11T14:57:25.554Z,604
2017-06-11T14:58:26.972Z,616
2017-06-11T14:59:28.390Z,620
2017-06-11T15:00:29.816Z,620
2017-06-11T15:01:31.242Z,648
2017-06-11T15:02:32.659Z,652
2017-06-11T15:03:34.075Z,608
2017-06-11T15:04:35.564Z,568
2017-06-11T15:05:36.984Z,536
2017-06-11T15:06:38.492Z,520
2017-06-11T15:07:39.909Z,524
2017-06-11T15:08:41.331Z,524
2017-06-11T15:09:42.751Z,552
2017-06-11T15:10:44.183Z,584
2017-06-11T15:11:45.603Z,580
2017-06-11T15:12:47.029Z,564
2017-06-11T15:13:48.453Z,560
2017-06-11T15:14:49.879Z,572
2017-06-11T15:15:51.310Z,588
2017-06-11T15:16:52.728Z,652
2017-06-11T15:17:54.160Z,740
2017-06-11T15:18:55.583Z,824
2017-06-11T15:19:57.003Z,836
2017-06-11T15:20:58.442Z,856
2017-06-11T15:21:59.874Z,860
2017-06-11T15:23:01.396Z,880
2017-06-11T15:24:02.809Z,860
2017-06-11T15:25:04.230Z,884
2017-06-11T15:26:05.659Z,916
2017-06-11T15:27:07.075Z,872
2017-06-11T15:28:08.504Z,892
2017-06-11T15:29:09.925Z,892
2017-06-11T15:30:11.349Z,848
2017-06-11T15:31:12.791Z,804
2017-06-11T15:32:14.210Z,744
2017-06-11T15:33:15.633Z,688
2017-06-11T15:34:17.050Z,656
2017-06-11T15:35:18.476Z,636
2017-06-11T15:36:19.914Z,632
2017-06-11T15:37:21.363Z,620
2017-06-11T15:38:22.761Z,596
2017-06-11T15:39:24.382Z,576
2017-06-11T15:40:25.804Z,556
2017-06-11T15:41:29.979Z,524
2017-06-11T15:42:32.691Z,512
2017-06-11T15:43:34.141Z,492
2017-06-11T15:44:35.585Z,484
2017-06-11T15:45:37.017Z,476
2017-06-11T15:46:38.463Z,452
2017-06-11T15:47:39.902Z,436
2017-06-11T15:48:41.318Z,436
2017-06-11T15:49:42.746Z,456
2017-06-11T15:50:44.177Z,472
2017-06-11T15:51:46.077Z,460
2017-06-11T15:52:47.520Z,452
2017-06-11T15:53:48.939Z,456
2017-06-11T15:54:50.903Z,452
2017-06-11T15:55:52.325Z,440
2017-06-11T15:56:53.747Z,396
2017-06-11T15:57:55.277Z,360
2017-06-11T15:58:56.834Z,356
2017-06-11T15:59:58.273Z,360
2017-06-11T16:00:59.716Z,356
2017-06-11T16:02:01.116Z,364
2017-06-11T16:03:02.739Z,376
2017-06-11T16:04:04.159Z,368
2017-06-11T16:05:05.607Z,360
2017-06-11T16:06:12.995Z,352
2017-06-11T16:07:14.558Z,344
2017-06-11T16:08:16.654Z,348
2017-06-11T16:09:18.421Z,328
2017-06-11T16:10:19.991Z,320
2017-06-11T16:11:24.130Z,312
2017-06-11T16:12:25.687Z,300
2017-06-11T16:13:27.747Z,284
2017-06-11T16:14:29.174Z,280
2017-06-11T16:15:31.396Z,292
2017-06-11T16:16:32.814Z,304
2017-06-11T16:17:34.252Z,316
2017-06-11T16:18:36.234Z,320
2017-06-11T16:19:37.792Z,312
2017-06-11T16:20:39.449Z,316
2017-06-11T16:21:40.866Z,324
2017-06-11T16:22:42.310Z,332
2017-06-11T16:23:43.735Z,332
2017-06-11T16:24:45.248Z,328
2017-06-11T16:25:46.685Z,316
2017-06-11T16:26:48.099Z,300
2017-06-11T16:27:49.637Z,288
2017-06-11T16:28:51.058Z,284
2017-06-11T16:29:53.428Z,280
2017-06-11T16:30:53.977Z,276
2017-06-11T16:31:55.405Z,260
2017-06-11T16:32:59.483Z,248
2017-06-11T16:34:00.871Z,244
2017-06-11T16:35:02.627Z,244
2017-06-11T16:36:04.053Z,244
2017-06-11T16:37:07.771Z,244
2017-06-11T16:38:09.182Z,240
2017-06-11T16:39:10.620Z,228
2017-06-11T16:40:12.042Z,240
2017-06-11T16:41:13.462Z,232
2017-06-11T16:42:14.891Z,232
2017-06-11T16:43:16.345Z,236
2017-06-11T16:44:17.762Z,232
2017-06-11T16:45:19.190Z,228
2017-06-11T16:46:20.664Z,224
2017-06-11T16:47:22.147Z,232
2017-06-11T16:48:23.578Z,240
2017-06-11T16:49:25.056Z,248
2017-06-11T16:50:26.508Z,248
2017-06-11T16:51:28.826Z,248
2017-06-11T16:52:30.404Z,236
2017-06-11T16:53:32.487Z,232
2017-06-11T16:54:33.907Z,228
2017-06-11T16:55:35.328Z,236
2017-06-11T16:56:36.795Z,240
2017-06-11T16:57:38.219Z,244
2017-06-11T16:58:39.638Z,248
2017-06-11T16:59:41.147Z,252
2017-06-11T17:00:42.553Z,260
2017-06-11T17:01:43.977Z,268
2017-06-11T17:02:45.407Z,276
2017-06-11T17:03:47.825Z,280
2017-06-11T17:04:49.373Z,272
2017-06-11T17:05:51.581Z,284
2017-06-11T17:06:55.281Z,284
2017-06-11T17:07:58.052Z,300
2017-06-11T17:09:00.585Z,308
2017-06-11T17:10:02.085Z,320
2017-06-11T17:11:03.517Z,336
2017-06-11T17:12:05.812Z,348
2017-06-11T17:13:07.408Z,336
2017-06-11T17:14:09.517Z,356
2017-06-11T17:15:10.959Z,364
2017-06-11T17:16:12.388Z,364
2017-06-11T17:17:13.828Z,364
2017-06-11T17:18:15.313Z,380
2017-06-11T17:19:17.949Z,372
2017-06-11T17:20:19.532Z,380
2017-06-11T17:21:23.032Z,420
2017-06-11T17:22:25.281Z,464
2017-06-11T17:23:27.567Z,476
2017-06-11T17:24:29.403Z,460
2017-06-11T17:25:30.872Z,420
2017-06-11T17:26:32.299Z,376
2017-06-11T17:27:33.722Z,356
2017-06-11T17:28:37.786Z,336
2017-06-11T17:29:40.281Z,320
2017-06-11T17:30:41.755Z,312
2017-06-11T17:31:43.206Z,308
2017-06-11T17:32:45.069Z,308
2017-06-11T17:33:46.510Z,308
2017-06-11T17:34:47.967Z,328
2017-06-11T17:35:49.396Z,348
2017-06-11T17:36:50.841Z,364
2017-06-11T17:37:52.832Z,396
2017-06-11T17:38:55.230Z,432
2017-06-11T17:39:59.053Z,456
2017-06-11T17:41:02.721Z,468
2017-06-11T17:42:04.149Z,472
2017-06-11T17:43:05.584Z,500
2017-06-11T17:44:09.261Z,536
2017-06-11T17:45:10.824Z,628
2017-06-11T17:46:12.751Z,708
2017-06-11T17:47:14.660Z,724
2017-06-11T17:48:16.091Z,804
2017-06-11T17:49:17.617Z,872
2017-06-11T17:50:19.037Z,804
2017-06-11T17:51:20.495Z,832
2017-06-11T17:52:22.248Z,816
2017-06-11T17:53:23.684Z,780
2017-06-11T17:54:25.106Z,676
2017-06-11T17:55:27.578Z,576
2017-06-11T17:56:31.145Z,464
2017-06-11T17:57:32.536Z,388
2017-06-11T17:58:33.985Z,352
2017-06-11T17:59:35.431Z,328
2017-06-11T18:00:36.856Z,324
2017-06-11T18:01:38.287Z,332
2017-06-11T18:02:39.732Z,320
2017-06-11T18:03:41.180Z,292
2017-06-11T18:04:42.634Z,264
2017-06-11T18:05:44.064Z,244
2017-06-11T18:06:45.495Z,228
2017-06-11T18:07:46.934Z,200
2017-06-11T18:08:48.361Z,172
2017-06-11T18:09:49.813Z,160
2017-06-11T18:10:51.295Z,160
2017-06-11T18:11:52.729Z,168
2017-06-11T18:12:54.162Z,196
2017-06-11T18:13:55.643Z,192
2017-06-11T18:14:57.115Z,176
2017-06-11T18:15:58.608Z,152
2017-06-11T18:17:00.068Z,132
2017-06-11T18:18:01.514Z,116
2017-06-11T18:19:02.997Z,104
2017-06-11T18:20:04.472Z,96
2017-06-11T18:21:05.902Z,88
2017-06-11T18:22:07.415Z,80
2017-06-11T18:23:08.965Z,80
2017-06-11T18:24:10.431Z,76
2017-06-11T18:25:11.888Z,76
2017-06-11T18:26:13.316Z,76
2017-06-11T18:27:14.812Z,72
2017-06-11T18:28:16.325Z,68
2017-06-11T18:29:17.886Z,64
2017-06-11T18:30:19.343Z,60
2017-06-11T18:31:20.781Z,64
2017-06-11T18:32:22.225Z,64
2017-06-11T18:33:23.664Z,64
2017-06-11T18:34:25.086Z,60
2017-06-11T18:35:29.203Z,64
2017-06-11T18:36:30.765Z,64
2017-06-11T18:37:36.143Z,64
2017-06-11T18:38:41.059Z,56
2017-06-11T18:39:42.519Z,52
2017-06-11T18:40:44.177Z,52
2017-06-11T18:41:45.843Z,52
2017-06-11T18:42:47.231Z,52
2017-06-11T18:43:48.775Z,56
2017-06-11T18:44:50.674Z,56
2017-06-11T18:45:53.595Z,56
2017-06-11T18:46:55.074Z,52
2017-06-11T18:47:56.521Z,48
2017-06-11T18:48:58.001Z,44
2017-06-11T18:49:59.427Z,44
2017-06-11T18:51:00.868Z,44
2017-06-11T18:52:02.408Z,40
2017-06-11T18:53:03.840Z,36
2017-06-11T18:54:05.288Z,36
2017-06-11T18:55:06.749Z,36
2017-06-11T18:56:08.182Z,28
2017-06-11T18:57:09.619Z,32
2017-06-11T18:58:11.140Z,32
2017-06-11T18:59:12.617Z,28
2017-06-11T19:00:14.600Z,28
2017-06-11T19:01:16.913Z,28
2017-06-11T19:02:18.384Z,28
2017-06-11T19:03:19.927Z,24
2017-06-11T19:04:21.363Z,24
2017-06-11T19:05:22.782Z,20
2017-06-11T19:06:24.205Z,20
2017-06-11T19:07:25.786Z,24
2017-06-11T19:08:27.229Z,20
2017-06-11T19:09:28.652Z,24
2017-06-11T19:10:30.112Z,24
2017-06-11T19:11:39.367Z,24
2017-06-11T19:12:40.789Z,24
2017-06-11T19:13:42.209Z,28
2017-06-11T19:14:43.661Z,28
2017-06-11T19:15:45.083Z,24
2017-06-11T19:16:46.501Z,32
2017-06-11T19:17:47.921Z,28
2017-06-11T19:18:49.391Z,24
2017-06-11T19:19:50.834Z,20
2017-06-11T19:20:52.246Z,20
2017-06-11T19:21:53.667Z,20
2017-06-11T19:22:55.292Z,16
2017-06-11T19:23:56.719Z,16
2017-06-11T19:24:58.192Z,16
2017-06-11T19:25:59.669Z,12
2017-06-11T19:27:01.087Z,16
2017-06-11T19:28:02.521Z,16
2017-06-11T19:29:03.936Z,12
2017-06-11T19:30:05.357Z,16
2017-06-11T19:31:06.826Z,12
2017-06-11T19:32:08.253Z,16
2017-06-11T19:33:09.670Z,16
2017-06-11T19:34:11.096Z,16
2017-06-11T19:35:12.523Z,20
2017-06-11T19:36:14.954Z,20
2017-06-11T19:37:16.364Z,20
2017-06-11T19:38:17.857Z,20
2017-06-11T19:39:19.470Z,16
2017-06-11T19:40:20.852Z,12
2017-06-11T19:41:22.262Z,8
2017-06-11T19:42:23.710Z,8
2017-06-11T19:43:25.101Z,8
2017-06-11T19:44:26.529Z,12
2017-06-11T19:45:27.952Z,12
2017-06-11T19:46:29.375Z,8
2017-06-11T19:47:30.997Z,8
2017-06-11T19:48:35.003Z,8
2017-06-11T19:49:36.575Z,8
2017-06-11T19:50:38.074Z,8
2017-06-11T19:51:40.153Z,8
2017-06-11T19:52:41.730Z,8
2017-06-11T19:53:43.218Z,8
2017-06-11T19:54:44.642Z,8
2017-06-11T19:55:46.143Z,8
2017-06-11T19:56:47.594Z,8
2017-06-11T19:57:49.020Z,8
2017-06-11T19:58:50.441Z,8
2017-06-11T19:59:54.106Z,8
2017-06-11T20:01:00.022Z,8
2017-06-11T20:02:08.369Z,8
2017-06-11T20:03:09.548Z,4
2017-06-11T20:04:10.977Z,4
2017-06-11T20:05:12.398Z,4
2017-06-11T20:06:14.217Z,4
2017-06-11T20:07:18.781Z,4
2017-06-11T20:08:20.522Z,4
2017-06-11T20:09:22.585Z,4
2017-06-11T20:10:24.428Z,4
2017-06-11T20:11:26.578Z,8
2017-06-11T20:12:28.477Z,4
2017-06-11T20:13:30.397Z,4
2017-06-11T20:14:33.044Z,4
2017-06-11T20:15:34.729Z,4
2017-06-11T20:16:36.146Z,4
2017-06-11T20:17:37.608Z,4
2017-06-11T20:18:38.988Z,4
2017-06-11T20:19:40.405Z,4
2017-06-11T20:20:41.821Z,8
2017-06-11T20:21:43.238Z,4
2017-06-11T20:22:44.712Z,4
2017-06-11T20:23:46.155Z,8
2017-06-11T20:24:47.646Z,8
2017-06-11T20:25:49.250Z,8
2017-06-11T20:26:50.700Z,8
2017-06-11T20:27:52.189Z,8
2017-06-11T20:28:55.482Z,8
2017-06-11T20:29:57.225Z,8
2017-06-11T20:30:58.868Z,8
2017-06-11T20:32:01.327Z,8
2017-06-11T20:33:02.763Z,8
2017-06-11T20:34:04.418Z,8
2017-06-11T20:35:06.602Z,8
2017-06-11T20:36:08.904Z,8
2017-06-11T20:37:10.531Z,8
2017-06-11T20:38:11.979Z,8
2017-06-11T20:39:13.394Z,8
2017-06-11T20:40:15.298Z,8
2017-06-11T20:41:17.518Z,8
2017-06-11T20:42:18.964Z,8
2017-06-11T20:43:21.196Z,8
2017-06-11T20:44:22.906Z,8
2017-06-11T20:45:24.685Z,8
2017-06-11T20:46:26.523Z,8
2017-06-11T20:47:28.110Z,8
2017-06-11T20:48:29.954Z,0
2017-06-11T20:49:32.512Z,4
2017-06-11T20:50:34.294Z,8
2017-06-11T20:51:35.767Z,8
2017-06-11T20:52:37.197Z,8
2017-06-11T20:53:38.880Z,8
2017-06-11T20:54:40.762Z,8
2017-06-11T20:55:42.725Z,8
2017-06-11T20:56:44.212Z,8
2017-06-11T20:57:46.025Z,8
2017-06-11T20:58:48.062Z,8
2017-06-11T20:59:49.939Z,8
2017-06-11T21:00:51.371Z,8
2017-06-11T21:01:52.810Z,8
2017-06-11T21:02:54.384Z,8
2017-06-11T21:03:55.976Z,8
2017-06-11T21:04:57.396Z,8
2017-06-11T21:05:58.882Z,8
2017-06-11T21:07:00.307Z,8
2017-06-11T21:08:01.747Z,8
2017-06-11T21:09:03.189Z,8
2017-06-11T21:10:04.614Z,8
2017-06-11T21:11:06.033Z,8
2017-06-11T21:12:07.463Z,8
2017-06-11T21:13:08.877Z,8
2017-06-11T21:14:10.308Z,8
2017-06-11T21:15:11.742Z,8
2017-06-11T21:16:13.163Z,8
2017-06-11T21:17:14.596Z,8
2017-06-11T21:18:16.032Z,8
2017-06-11T21:19:17.455Z,8
2017-06-11T21:20:18.889Z,8
2017-06-11T21:21:20.330Z,8
2017-06-11T21:22:21.750Z,8
2017-06-11T21:23:23.179Z,8
2017-06-11T21:24:24.605Z,8
2017-06-11T21:25:26.127Z,8
2017-06-11T21:26:27.650Z,8
2017-06-11T21:27:29.094Z,8
2017-06-11T21:28:30.545Z,8
2017-06-11T21:29:32.042Z,8
2017-06-11T21:30:33.462Z,8
2017-06-11T21:31:34.951Z,8
2017-06-11T21:32:36.401Z,8
2017-06-11T21:33:37.823Z,8
2017-06-11T21:34:39.250Z,8
2017-06-11T21:35:40.665Z,8
2017-06-11T21:36:42.088Z,8
2017-06-11T21:37:43.511Z,8
2017-06-11T21:38:44.936Z,8
2017-06-11T21:39:46.351Z,8
2017-06-11T21:40:47.772Z,8
2017-06-11T21:41:49.197Z,8
2017-06-11T21:42:50.613Z,8
2017-06-11T21:43:52.045Z,8
2017-06-11T21:44:53.459Z,8
2017-06-11T21:45:54.884Z,8
2017-06-11T21:46:56.296Z,8
2017-06-11T21:47:57.725Z,8
2017-06-11T21:48:59.154Z,8
2017-06-11T21:50:00.575Z,8
2017-06-11T21:51:02.012Z,8
2017-06-11T21:52:03.425Z,8
2017-06-11T21:53:04.848Z,4
2017-06-11T21:54:06.270Z,0
2017-06-11T21:55:07.686Z,0
2017-06-11T21:56:09.116Z,0
2017-06-11T21:57:10.539Z,0
2017-06-11T21:58:12.003Z,0
2017-06-11T21:59:13.431Z,0
2017-06-11T22:00:14.868Z,0
2017-06-11T22:01:16.267Z,0
2017-06-11T22:02:17.711Z,0
2017-06-11T22:03:19.211Z,0
2017-06-11T22:04:20.635Z,0
2017-06-11T22:05:22.073Z,0
2017-06-11T22:06:23.478Z,0
2017-06-11T22:07:24.902Z,0
2017-06-11T22:08:26.319Z,0
2017-06-11T22:09:27.737Z,0
2017-06-11T22:10:29.191Z,0
2017-06-11T22:11:30.611Z,0
2017-06-11T22:12:32.031Z,0
2017-06-11T22:13:33.451Z,0
2017-06-11T22:14:35.157Z,0
2017-06-11T22:15:36.579Z,0
2017-06-11T22:16:38.000Z,0
2017-06-11T22:17:39.420Z,0
2017-06-11T22:18:40.847Z,0
2017-06-11T22:19:42.270Z,0
2017-06-11T22:20:43.684Z,0
2017-06-11T22:21:45.099Z,0
2017-06-11T22:22:46.517Z,0
2017-06-11T22:23:47.949Z,0
2017-06-11T22:24:49.364Z,0
2017-06-11T22:25:50.980Z,0
2017-06-11T22:26:52.376Z,0
2017-06-11T22:27:53.792Z,0
2017-06-11T22:28:55.210Z,0
2017-06-11T22:29:56.628Z,0
2017-06-11T22:30:58.098Z,0
2017-06-11T22:31:59.526Z,0
2017-06-11T22:33:00.941Z,0
2017-06-11T22:34:02.360Z,0
2017-06-11T22:35:03.804Z,0
2017-06-11T22:36:05.228Z,0
2017-06-11T22:37:06.641Z,0
2017-06-11T22:38:08.062Z,0
2017-06-11T22:39:09.498Z,0
2017-06-11T22:40:10.918Z,0
2017-06-11T22:41:12.333Z,0
2017-06-11T22:42:13.750Z,0
2017-06-11T22:43:15.162Z,0
2017-06-11T22:44:16.577Z,0
2017-06-11T22:45:17.995Z,0
2017-06-11T22:46:19.409Z,0
2017-06-11T22:47:20.828Z,0
2017-06-11T22:48:22.254Z,0
2017-06-11T22:49:23.666Z,0
2017-06-11T22:50:25.082Z,0
2017-06-11T22:51:26.495Z,0
2017-06-11T22:52:27.918Z,0
2017-06-11T22:53:29.334Z,0
2017-06-11T22:54:30.771Z,0
2017-06-11T22:55:32.184Z,0
2017-06-11T22:56:33.604Z,0
2017-06-11T22:57:35.017Z,0
2017-06-11T22:58:36.445Z,0
2017-06-11T22:59:37.890Z,0
2017-06-11T23:00:39.312Z,0
2017-06-11T23:01:40.729Z,0
2017-06-11T23:02:42.146Z,0
2017-06-11T23:03:43.566Z,0
2017-06-11T23:04:44.990Z,0
2017-06-11T23:05:46.401Z,0
2017-06-11T23:06:47.835Z,0
2017-06-11T23:07:49.246Z,0
2017-06-11T23:08:50.701Z,0
2017-06-11T23:09:52.140Z,0
2017-06-11T23:10:53.575Z,0
2017-06-11T23:11:54.991Z,0
2017-06-11T23:12:56.411Z,0
2017-06-11T23:13:57.824Z,0
2017-06-11T23:14:59.252Z,0
2017-06-11T23:16:00.680Z,0
2017-06-11T23:17:02.102Z,0
2017-06-11T23:18:03.530Z,0
2017-06-11T23:19:04.956Z,0
2017-06-11T23:20:06.365Z,0
2017-06-11T23:21:07.785Z,0
2017-06-11T23:22:09.203Z,0
2017-06-11T23:23:10.620Z,0
2017-06-11T23:24:12.045Z,0
2017-06-11T23:25:13.469Z,0
2017-06-11T23:26:14.887Z,0
2017-06-11T23:27:16.305Z,0
2017-06-11T23:28:17.720Z,0
2017-06-11T23:29:19.144Z,0
2017-06-11T23:30:20.556Z,0
2017-06-11T23:31:21.980Z,0
2017-06-11T23:32:23.398Z,0
2017-06-11T23:33:24.826Z,0
2017-06-11T23:34:26.248Z,0
2017-06-11T23:35:27.659Z,0
2017-06-11T23:36:29.076Z,0
2017-06-11T23:37:30.498Z,0
2017-06-11T23:38:31.919Z,0
2017-06-11T23:39:33.340Z,0
2017-06-11T23:40:34.751Z,0
2017-06-11T23:41:36.169Z,0
2017-06-11T23:42:37.589Z,0
2017-06-11T23:43:39.008Z,0
2017-06-11T23:44:40.423Z,0
2017-06-11T23:45:41.841Z,0
2017-06-11T23:46:43.256Z,0
2017-06-11T23:47:44.672Z,0
2017-06-11T23:48:46.086Z,0
2017-06-11T23:49:47.520Z,0
2017-06-11T23:50:48.937Z,0
2017-06-11T23:51:50.348Z,0
2017-06-11T23:52:51.772Z,0
2017-06-11T23:53:53.188Z,0
2017-06-11T23:54:54.606Z,0
2017-06-11T23:55:56.013Z,0
2017-06-11T23:56:57.438Z,0
2017-06-11T23:57:58.856Z,0
2017-06-11T23:59:00.309Z,0
